Time,TemperatureF,DewpointF,PressureIn,WindDirection,WindDirectionDegrees,WindSpeedMPH,WindSpeedGustMPH,Humidity,HourlyPrecipIn,Conditions,Clouds,dailyrainin,SoftwareType,DateUTC
2013-01-20 00:00:00,36.9,32.5,30.11,ESE,103,0.0,0.0,84,0.00,,,0.01,WUHU216DAVISVP2,2013-01-20 05:00:00,
2013-01-20 00:03:00,36.9,32.5,30.11,East,99,0.0,1.0,84,0.00,,,0.00,WUHU216DAVISVP2,2013-01-20 05:03:00,
2013-01-20 00:08:00,37.0,32.6,30.11,East,99,0.0,1.0,84,0.00,,,0.00,WUHU216DAVISVP2,2013-01-20 05:08:00,
2013-01-20 00:13:00,37.3,32.9,30.11,East,99,0.0,0.0,84,0.00,,,0.00,WUHU216DAVISVP2,2013-01-20 05:13:00,
2013-01-20 00:18:00,37.6,33.2,30.10,ESE,112,0.0,1.0,84,0.00,,,0.00,WUHU216DAVISVP2,2013-01-20 05:18:00,
2013-01-20 00:23:00,37.9,33.5,30.10,ESE,107,0.0,4.0,84,0.00,,,0.00,WUHU216DAVISVP2,2013-01-20 05:23:00,
2013-01-20 00:28:00,38.0,33.6,30.10,ESE,106,0.0,4.0,84,0.00,,,0.00,WUHU216DAVISVP2,2013-01-20 05:28:00,
2013-01-20 00:33:00,38.2,33.8,30.10,SE,145,0.0,2.0,84,0.00,,,0.00,WUHU216DAVISVP2,2013-01-20 05:33:00,
2013-01-20 00:38:00,38.3,33.9,30.10,SE,134,1.0,2.0,84,0.00,,,0.00,WUHU216DAVISVP2,2013-01-20 05:38:00,
2013-01-20 00:43:00,38.5,34.1,30.10,SE,133,1.0,1.0,84,0.00,,,0.00,WUHU216DAVISVP2,2013-01-20 05:43:00,
2013-01-20 00:48:00,38.8,34.1,30.10,SE,134,0.0,2.0,83,0.00,,,0.00,WUHU216DAVISVP2,2013-01-20 05:48:00,
2013-01-20 00:53:00,38.9,34.2,30.10,SE,130,0.0,2.0,83,0.00,,,0.00,WUHU216DAVISVP2,2013-01-20 05:53:00,
2013-01-20 00:58:00,38.9,34.2,30.10,SE,130,0.0,1.0,83,0.00,,,0.00,WUHU216DAVISVP2,2013-01-20 05:58:00,
2013-01-20 01:03:00,38.9,34.2,30.09,SE,130,1.0,1.0,83,0.00,,,0.00,WUHU216DAVISVP2,2013-01-20 06:03:00,
2013-01-20 01:08:00,38.9,34.2,30.09,East,89,0.0,1.0,83,0.00,,,0.00,WUHU216DAVISVP2,2013-01-20 06:08:00,
2013-01-20 01:13:00,39.2,34.5,30.09,WSW,237,0.0,4.0,83,0.00,,,0.00,WUHU216DAVISVP2,2013-01-20 06:13:00,
2013-01-20 01:18:00,39.3,34.6,30.09,ENE,62,0.0,4.0,83,0.00,,,0.00,WUHU216DAVISVP2,2013-01-20 06:18:00,
2013-01-20 01:23:00,39.6,34.9,30.09,SSW,192,0.0,4.0,83,0.00,,,0.00,WUHU216DAVISVP2,2013-01-20 06:23:00,
2013-01-20 01:28:00,39.9,35.2,30.09,SE,131,0.0,4.0,83,0.00,,,0.00,WUHU216DAVISVP2,2013-01-20 06:28:00,
2013-01-20 01:33:00,40.1,35.3,30.09,East,100,0.0,2.0,83,0.00,,,0.00,WUHU216DAVISVP2,2013-01-20 06:33:00,
2013-01-20 01:38:00,40.3,35.2,30.09,SE,143,0.0,4.0,82,0.00,,,0.00,WUHU216DAVISVP2,2013-01-20 06:38:00,
2013-01-20 01:43:00,40.6,35.5,30.09,NNE,20,2.0,4.0,82,0.00,,,0.00,WUHU216DAVISVP2,2013-01-20 06:43:00,
2013-01-20 01:48:00,40.8,35.4,30.08,South,171,0.0,6.0,81,0.00,,,0.00,WUHU216DAVISVP2,2013-01-20 06:48:00,
2013-01-20 01:53:00,41.2,35.8,30.08,SSE,150,0.0,6.0,81,0.00,,,0.00,WUHU216DAVISVP2,2013-01-20 06:53:00,
2013-01-20 01:58:00,41.3,35.6,30.08,WNW,296,0.0,2.0,80,0.00,,,0.00,WUHU216DAVISVP2,2013-01-20 06:58:00,
2013-01-20 02:03:00,41.6,35.9,30.08,North,0,1.0,8.0,80,0.00,,,0.00,WUHU216DAVISVP2,2013-01-20 07:03:00,
2013-01-20 02:08:00,41.9,35.9,30.08,NNE,25,0.0,8.0,79,0.00,,,0.00,WUHU216DAVISVP2,2013-01-20 07:08:00,
2013-01-20 02:13:00,42.1,36.1,30.08,WSW,256,2.0,4.0,79,0.00,,,0.00,WUHU216DAVISVP2,2013-01-20 07:13:00,
2013-01-20 02:18:00,41.9,35.9,30.07,South,182,0.0,4.0,79,0.00,,,0.00,WUHU216DAVISVP2,2013-01-20 07:18:00,
2013-01-20 02:23:00,41.8,35.8,30.07,NNE,27,0.0,4.0,79,0.00,,,0.00,WUHU216DAVISVP2,2013-01-20 07:23:00,
2013-01-20 02:28:00,41.6,35.3,30.07,SW,220,1.0,4.0,78,0.00,,,0.00,WUHU216DAVISVP2,2013-01-20 07:28:00,
2013-01-20 02:33:00,41.5,35.2,30.07,SE,140,0.0,4.0,78,0.00,,,0.00,WUHU216DAVISVP2,2013-01-20 07:33:00,
2013-01-20 02:38:00,41.5,35.2,30.07,South,169,0.0,2.0,78,0.00,,,0.00,WUHU216DAVISVP2,2013-01-20 07:38:00,
2013-01-20 02:43:00,41.3,35.0,30.07,SW,222,0.0,6.0,78,0.00,,,0.00,WUHU216DAVISVP2,2013-01-20 07:43:00,
2013-01-20 02:48:00,41.2,34.9,30.06,SE,140,0.0,6.0,78,0.00,,,0.00,WUHU216DAVISVP2,2013-01-20 07:48:00,
2013-01-20 02:53:00,41.1,34.8,30.06,NW,318,0.0,4.0,78,0.00,,,0.00,WUHU216DAVISVP2,2013-01-20 07:53:00,
2013-01-20 02:58:00,41.1,34.8,30.06,SE,141,0.0,4.0,78,0.00,,,0.00,WUHU216DAVISVP2,2013-01-20 07:58:00,
2013-01-20 03:03:00,40.9,34.6,30.06,SE,128,0.0,2.0,78,0.00,,,0.00,WUHU216DAVISVP2,2013-01-20 08:03:00,
2013-01-20 03:08:00,40.8,34.5,30.06,SE,128,0.0,1.0,78,0.00,,,0.00,WUHU216DAVISVP2,2013-01-20 08:08:00,
2013-01-20 03:13:00,40.6,34.3,30.06,ESE,116,1.0,1.0,78,0.00,,,0.00,WUHU216DAVISVP2,2013-01-20 08:13:00,
2013-01-20 03:18:00,40.6,34.3,30.06,WSW,243,0.0,4.0,78,0.00,,,0.00,WUHU216DAVISVP2,2013-01-20 08:18:00,
2013-01-20 03:23:00,40.3,34.3,30.06,WSW,243,0.0,4.0,79,0.00,,,0.00,WUHU216DAVISVP2,2013-01-20 08:23:00,
2013-01-20 03:28:00,40.3,34.0,30.06,SE,131,0.0,8.0,78,0.00,,,0.00,WUHU216DAVISVP2,2013-01-20 08:28:00,
2013-01-20 03:33:00,40.2,33.9,30.05,South,186,0.0,8.0,78,0.00,,,0.00,WUHU216DAVISVP2,2013-01-20 08:33:00,
2013-01-20 03:38:00,40.2,33.9,30.05,WSW,256,2.0,4.0,78,0.00,,,0.00,WUHU216DAVISVP2,2013-01-20 08:38:00,
2013-01-20 03:43:00,40.2,33.9,30.05,SE,141,0.0,2.0,78,0.00,,,0.00,WUHU216DAVISVP2,2013-01-20 08:43:00,
2013-01-20 03:48:00,40.2,33.9,30.05,SSE,158,6.0,6.0,78,0.00,,,0.00,WUHU216DAVISVP2,2013-01-20 08:48:00,
2013-01-20 03:53:00,40.3,34.0,30.05,SE,137,1.0,6.0,78,0.00,,,0.00,WUHU216DAVISVP2,2013-01-20 08:53:00,
2013-01-20 03:58:00,40.6,34.0,30.05,NE,56,0.0,8.0,77,0.00,,,0.00,WUHU216DAVISVP2,2013-01-20 08:58:00,
2013-01-20 04:03:00,40.8,34.2,30.05,NE,44,1.0,8.0,77,0.00,,,0.00,WUHU216DAVISVP2,2013-01-20 09:03:00,
2013-01-20 04:08:00,40.9,34.3,30.05,NE,49,0.0,1.0,77,0.00,,,0.00,WUHU216DAVISVP2,2013-01-20 09:08:00,
2013-01-20 04:13:00,40.8,34.2,30.05,NE,47,2.0,2.0,77,0.00,,,0.00,WUHU216DAVISVP2,2013-01-20 09:13:00,
2013-01-20 04:18:00,40.6,34.0,30.04,NE,47,0.0,2.0,77,0.00,,,0.00,WUHU216DAVISVP2,2013-01-20 09:18:00,
2013-01-20 04:23:00,40.5,33.9,30.04,ENE,61,0.0,2.0,77,0.00,,,0.00,WUHU216DAVISVP2,2013-01-20 09:23:00,
2013-01-20 04:28:00,40.5,33.9,30.04,North,0,0.0,2.0,77,0.00,,,0.00,WUHU216DAVISVP2,2013-01-20 09:28:00,
2013-01-20 04:33:00,40.3,33.7,30.04,North,0,0.0,1.0,77,0.00,,,0.00,WUHU216DAVISVP2,2013-01-20 09:33:00,
2013-01-20 04:38:00,40.2,33.6,30.04,North,7,1.0,1.0,77,0.00,,,0.00,WUHU216DAVISVP2,2013-01-20 09:38:00,
2013-01-20 04:43:00,40.2,33.6,30.04,NNE,27,0.0,2.0,77,0.00,,,0.00,WUHU216DAVISVP2,2013-01-20 09:43:00,
2013-01-20 04:48:00,40.1,33.5,30.03,NNE,27,0.0,2.0,77,0.00,,,0.00,WUHU216DAVISVP2,2013-01-20 09:48:00,
2013-01-20 04:53:00,40.1,33.5,30.03,WNW,289,0.0,2.0,77,0.00,,,0.00,WUHU216DAVISVP2,2013-01-20 09:53:00,
2013-01-20 04:58:00,39.8,33.2,30.03,WNW,289,0.0,2.0,77,0.00,,,0.00,WUHU216DAVISVP2,2013-01-20 09:58:00,
2013-01-20 05:03:00,39.6,33.0,30.03,WNW,291,0.0,4.0,77,0.00,,,0.00,WUHU216DAVISVP2,2013-01-20 10:03:00,
2013-01-20 05:08:00,39.6,33.0,30.03,East,93,0.0,4.0,77,0.00,,,0.00,WUHU216DAVISVP2,2013-01-20 10:08:00,
2013-01-20 05:13:00,39.5,33.2,30.03,East,93,1.0,2.0,78,0.00,,,0.00,WUHU216DAVISVP2,2013-01-20 10:13:00,
2013-01-20 05:18:00,39.5,33.2,30.04,East,93,0.0,1.0,78,0.00,,,0.00,WUHU216DAVISVP2,2013-01-20 10:18:00,
2013-01-20 05:23:00,39.3,33.0,30.04,East,93,0.0,1.0,78,0.00,,,0.00,WUHU216DAVISVP2,2013-01-20 10:23:00,
2013-01-20 05:28:00,39.1,32.9,30.04,East,93,0.0,0.0,78,0.00,,,0.00,WUHU216DAVISVP2,2013-01-20 10:28:00,
2013-01-20 05:33:00,38.9,32.7,30.04,East,93,0.0,0.0,78,0.00,,,0.00,WUHU216DAVISVP2,2013-01-20 10:33:00,
2013-01-20 05:38:00,38.8,32.6,30.04,East,93,0.0,0.0,78,0.00,,,0.00,WUHU216DAVISVP2,2013-01-20 10:38:00,
2013-01-20 05:43:00,38.8,32.6,30.04,SSE,157,0.0,4.0,78,0.00,,,0.00,WUHU216DAVISVP2,2013-01-20 10:43:00,
2013-01-20 05:48:00,38.8,32.9,30.04,SSE,157,0.0,4.0,79,0.00,,,0.00,WUHU216DAVISVP2,2013-01-20 10:48:00,
2013-01-20 05:53:00,38.6,32.6,30.04,SSE,157,0.0,1.0,79,0.00,,,0.00,WUHU216DAVISVP2,2013-01-20 10:53:00,
2013-01-20 05:58:00,38.5,32.6,30.04,SSE,157,0.0,1.0,79,0.00,,,0.00,WUHU216DAVISVP2,2013-01-20 10:58:00,
2013-01-20 06:03:00,38.3,32.4,30.04,SSE,155,0.0,1.0,79,0.00,,,0.00,WUHU216DAVISVP2,2013-01-20 11:03:00,
2013-01-20 06:08:00,38.0,32.1,30.04,SSE,155,0.0,0.0,79,0.00,,,0.00,WUHU216DAVISVP2,2013-01-20 11:08:00,
2013-01-20 06:13:00,37.9,32.3,30.04,SSE,155,0.0,0.0,80,0.00,,,0.00,WUHU216DAVISVP2,2013-01-20 11:13:00,
2013-01-20 06:18:00,37.8,32.2,30.04,SSE,155,0.0,0.0,80,0.00,,,0.00,WUHU216DAVISVP2,2013-01-20 11:18:00,
2013-01-20 06:23:00,37.5,31.9,30.04,SSE,155,0.0,0.0,80,0.00,,,0.00,WUHU216DAVISVP2,2013-01-20 11:23:00,
2013-01-20 06:28:00,37.3,31.7,30.04,SSE,155,0.0,0.0,80,0.00,,,0.00,WUHU216DAVISVP2,2013-01-20 11:28:00,
2013-01-20 06:33:00,37.2,31.6,30.04,SSE,155,0.0,0.0,80,0.00,,,0.00,WUHU216DAVISVP2,2013-01-20 11:33:00,
2013-01-20 06:38:00,36.9,31.3,30.04,SSE,155,0.0,0.0,80,0.00,,,0.00,WUHU216DAVISVP2,2013-01-20 11:38:00,
2013-01-20 06:43:00,36.8,31.5,30.04,SSE,155,0.0,0.0,81,0.00,,,0.00,WUHU216DAVISVP2,2013-01-20 11:43:00,
2013-01-20 06:48:00,36.9,31.6,30.04,SSE,147,0.0,1.0,81,0.00,,,0.00,WUHU216DAVISVP2,2013-01-20 11:48:00,
2013-01-20 06:53:00,36.6,31.3,30.04,SSE,147,0.0,1.0,81,0.00,,,0.00,WUHU216DAVISVP2,2013-01-20 11:53:00,
2013-01-20 06:58:00,36.5,31.2,30.04,SSE,147,0.0,0.0,81,0.00,,,0.00,WUHU216DAVISVP2,2013-01-20 11:58:00,
2013-01-20 07:03:00,36.3,31.0,30.04,SSE,147,0.0,0.0,81,0.00,,,0.00,WUHU216DAVISVP2,2013-01-20 12:03:00,
2013-01-20 07:08:00,36.2,30.9,30.04,SSE,147,0.0,0.0,81,0.00,,,0.00,WUHU216DAVISVP2,2013-01-20 12:08:00,
2013-01-20 07:13:00,36.0,30.7,30.04,SSE,147,0.0,0.0,81,0.00,,,0.00,WUHU216DAVISVP2,2013-01-20 12:13:00,
2013-01-20 07:18:00,35.9,30.9,30.04,SSE,147,0.0,0.0,82,0.00,,,0.00,WUHU216DAVISVP2,2013-01-20 12:18:00,
2013-01-20 07:23:00,35.8,30.8,30.04,SSE,147,0.0,0.0,82,0.00,,,0.00,WUHU216DAVISVP2,2013-01-20 12:23:00,
2013-01-20 07:28:00,35.6,30.6,30.04,SSE,147,0.0,0.0,82,0.00,,,0.00,WUHU216DAVISVP2,2013-01-20 12:28:00,
2013-01-20 07:33:00,35.5,30.5,30.04,SSE,147,0.0,0.0,82,0.00,,,0.00,WUHU216DAVISVP2,2013-01-20 12:33:00,
2013-01-20 07:38:00,35.3,30.7,30.04,SSE,147,0.0,0.0,83,0.00,,,0.00,WUHU216DAVISVP2,2013-01-20 12:38:00,
2013-01-20 07:43:00,35.3,30.6,30.04,SSE,147,0.0,0.0,83,0.00,,,0.00,WUHU216DAVISVP2,2013-01-20 12:43:00,
2013-01-20 07:48:00,35.5,30.8,30.05,SSE,147,0.0,0.0,83,0.00,,,0.00,WUHU216DAVISVP2,2013-01-20 12:48:00,
2013-01-20 07:53:00,35.8,31.1,30.05,ESE,123,1.0,2.0,83,0.00,,,0.00,WUHU216DAVISVP2,2013-01-20 12:53:00,
2013-01-20 07:58:00,36.0,31.3,30.05,West,270,0.0,2.0,83,0.00,,,0.00,WUHU216DAVISVP2,2013-01-20 12:58:00,
2013-01-20 08:03:00,36.3,31.6,30.05,West,270,0.0,2.0,83,0.00,,,0.00,WUHU216DAVISVP2,2013-01-20 13:03:00,
2013-01-20 08:08:00,36.6,31.9,30.05,NW,306,0.0,2.0,83,0.00,,,0.00,WUHU216DAVISVP2,2013-01-20 13:08:00,
2013-01-20 08:13:00,36.9,32.2,30.05,NW,326,0.0,2.0,83,0.00,,,0.00,WUHU216DAVISVP2,2013-01-20 13:13:00,
2013-01-20 08:18:00,37.3,32.6,30.06,North,350,0.0,2.0,83,0.00,,,0.00,WUHU216DAVISVP2,2013-01-20 13:18:00,
2013-01-20 08:23:00,37.8,33.1,30.06,NE,34,0.0,1.0,83,0.00,,,0.00,WUHU216DAVISVP2,2013-01-20 13:23:00,
2013-01-20 08:28:00,38.3,33.3,30.06,NE,34,0.0,1.0,82,0.00,,,0.00,WUHU216DAVISVP2,2013-01-20 13:28:00,
2013-01-20 08:33:00,39.1,33.8,30.06,NE,52,0.0,2.0,81,0.00,,,0.00,WUHU216DAVISVP2,2013-01-20 13:33:00,
2013-01-20 08:38:00,39.6,34.3,30.06,WSW,244,2.0,6.0,81,0.00,,,0.00,WUHU216DAVISVP2,2013-01-20 13:38:00,
2013-01-20 08:43:00,40.2,34.2,30.06,SW,234,0.0,6.0,79,0.00,,,0.00,WUHU216DAVISVP2,2013-01-20 13:43:00,
2013-01-20 08:48:00,40.9,34.6,30.06,North,354,1.0,4.0,78,0.00,,,0.00,WUHU216DAVISVP2,2013-01-20 13:48:00,
2013-01-20 08:53:00,41.2,34.9,30.06,SSE,164,0.0,4.0,78,0.00,,,0.00,WUHU216DAVISVP2,2013-01-20 13:53:00,
2013-01-20 08:58:00,41.5,34.9,30.06,ESE,114,0.0,4.0,77,0.00,,,0.00,WUHU216DAVISVP2,2013-01-20 13:58:00,
2013-01-20 09:03:00,41.9,34.9,30.06,ENE,62,0.0,4.0,76,0.00,,,0.00,WUHU216DAVISVP2,2013-01-20 14:03:00,
2013-01-20 09:08:00,42.1,34.8,30.06,NE,47,1.0,4.0,75,0.00,,,0.00,WUHU216DAVISVP2,2013-01-20 14:08:00,
2013-01-20 09:13:00,42.2,34.9,30.06,WNW,296,0.0,2.0,75,0.00,,,0.00,WUHU216DAVISVP2,2013-01-20 14:13:00,
2013-01-20 09:18:00,42.5,35.2,30.06,NW,312,0.0,6.0,75,0.00,,,0.00,WUHU216DAVISVP2,2013-01-20 14:18:00,
2013-01-20 09:23:00,42.8,35.2,30.06,NW,308,1.0,7.0,74,0.00,,,0.00,WUHU216DAVISVP2,2013-01-20 14:23:00,
2013-01-20 09:28:00,43.3,35.3,30.06,NW,308,0.0,7.0,73,0.00,,,0.00,WUHU216DAVISVP2,2013-01-20 14:28:00,
2013-01-20 09:33:00,44.2,35.8,30.06,North,349,7.0,7.0,72,0.00,,,0.00,WUHU216DAVISVP2,2013-01-20 14:33:00,
2013-01-20 09:38:00,44.9,36.2,30.06,NW,315,0.0,9.0,71,0.00,,,0.00,WUHU216DAVISVP2,2013-01-20 14:38:00,
2013-01-20 09:43:00,45.7,36.6,30.06,WSW,240,2.0,9.0,70,0.00,,,0.00,WUHU216DAVISVP2,2013-01-20 14:43:00,
2013-01-20 09:48:00,46.5,37.3,30.06,NNE,25,0.0,6.0,70,0.00,,,0.00,WUHU216DAVISVP2,2013-01-20 14:48:00,
2013-01-20 09:53:00,47.1,36.8,30.06,WSW,254,0.0,6.0,67,0.00,,,0.00,WUHU216DAVISVP2,2013-01-20 14:53:00,
2013-01-20 09:58:00,47.7,37.4,30.06,WSW,251,1.0,6.0,67,0.00,,,0.00,WUHU216DAVISVP2,2013-01-20 14:58:00,
2013-01-20 10:03:00,48.2,37.1,30.06,ESE,117,0.0,8.0,65,0.00,,,0.00,WUHU216DAVISVP2,2013-01-20 15:03:00,
2013-01-20 10:08:00,48.6,37.5,30.06,East,86,0.0,8.0,65,0.00,,,0.00,WUHU216DAVISVP2,2013-01-20 15:08:00,
2013-01-20 10:13:00,48.9,37.4,30.06,NNE,18,2.0,6.0,64,0.00,,,0.00,WUHU216DAVISVP2,2013-01-20 15:13:00,
2013-01-20 10:18:00,49.2,36.8,30.06,SW,216,0.0,7.0,62,0.00,,,0.00,WUHU216DAVISVP2,2013-01-20 15:18:00,
2013-01-20 10:23:00,49.4,37.4,30.06,North,353,2.0,7.0,63,0.00,,,0.00,WUHU216DAVISVP2,2013-01-20 15:23:00,
2013-01-20 10:28:00,49.6,37.2,30.06,ENE,61,0.0,4.0,62,0.00,,,0.00,WUHU216DAVISVP2,2013-01-20 15:28:00,
2013-01-20 10:33:00,49.8,37.8,30.06,ENE,66,0.0,4.0,63,0.00,,,0.00,WUHU216DAVISVP2,2013-01-20 15:33:00,
2013-01-20 10:38:00,50.1,36.8,30.06,North,356,6.0,6.0,60,0.00,,,0.00,WUHU216DAVISVP2,2013-01-20 15:38:00,
2013-01-20 10:43:00,50.4,37.6,30.06,North,349,2.0,6.0,61,0.00,,,0.00,WUHU216DAVISVP2,2013-01-20 15:43:00,
2013-01-20 10:48:00,50.8,37.9,30.06,North,1,7.0,7.0,61,0.00,,,0.00,WUHU216DAVISVP2,2013-01-20 15:48:00,
2013-01-20 10:53:00,51.3,38.0,30.06,WSW,246,4.0,7.0,60,0.00,,,0.00,WUHU216DAVISVP2,2013-01-20 15:53:00,
2013-01-20 10:58:00,51.6,37.4,30.06,ESE,113,0.0,7.0,58,0.00,,,0.00,WUHU216DAVISVP2,2013-01-20 15:58:00,
2013-01-20 11:03:00,51.7,37.5,30.05,NW,312,0.0,8.0,58,0.00,,,0.00,WUHU216DAVISVP2,2013-01-20 16:03:00,
2013-01-20 11:08:00,52.2,37.9,30.05,NW,318,2.0,8.0,58,0.00,,,0.00,WUHU216DAVISVP2,2013-01-20 16:08:00,
2013-01-20 11:13:00,52.6,37.9,30.05,ENE,61,0.0,4.0,57,0.00,,,0.00,WUHU216DAVISVP2,2013-01-20 16:13:00,
2013-01-20 11:18:00,52.8,37.6,30.04,South,175,0.0,2.0,56,0.00,,,0.00,WUHU216DAVISVP2,2013-01-20 16:18:00,
2013-01-20 11:23:00,53.1,38.3,30.04,SSE,152,0.0,6.0,57,0.00,,,0.00,WUHU216DAVISVP2,2013-01-20 16:23:00,
2013-01-20 11:28:00,53.2,37.5,30.04,SSE,147,0.0,6.0,55,0.00,,,0.00,WUHU216DAVISVP2,2013-01-20 16:28:00,
2013-01-20 11:33:00,53.5,38.3,30.03,West,278,1.0,6.0,56,0.00,,,0.00,WUHU216DAVISVP2,2013-01-20 16:33:00,
2013-01-20 11:38:00,53.9,37.7,30.03,North,0,0.0,6.0,54,0.00,,,0.00,WUHU216DAVISVP2,2013-01-20 16:38:00,
2013-01-20 11:43:00,54.4,38.1,30.03,SE,126,0.0,9.0,54,0.00,,,0.00,WUHU216DAVISVP2,2013-01-20 16:43:00,
2013-01-20 11:48:00,55.0,39.2,30.02,North,357,1.0,9.0,55,0.00,,,0.00,WUHU216DAVISVP2,2013-01-20 16:48:00,
2013-01-20 11:53:00,55.7,39.4,30.02,North,356,7.0,7.0,54,0.00,,,0.00,WUHU216DAVISVP2,2013-01-20 16:53:00,
2013-01-20 11:58:00,56.2,39.8,30.02,NW,320,0.0,7.0,54,0.00,,,0.00,WUHU216DAVISVP2,2013-01-20 16:58:00,
2013-01-20 12:03:00,57.0,39.6,30.01,West,275,2.0,7.0,52,0.00,,,0.00,WUHU216DAVISVP2,2013-01-20 17:03:00,
2013-01-20 12:08:00,57.6,40.1,30.01,WNW,287,4.0,7.0,52,0.00,,,0.00,WUHU216DAVISVP2,2013-01-20 17:08:00,
2013-01-20 12:13:00,58.0,38.9,30.01,West,280,0.0,9.0,49,0.00,,,0.00,WUHU216DAVISVP2,2013-01-20 17:13:00,
2013-01-20 12:18:00,58.4,39.3,30.00,WNW,295,2.0,10.0,49,0.00,,,0.00,WUHU216DAVISVP2,2013-01-20 17:18:00,
2013-01-20 12:23:00,58.9,40.3,30.00,NW,326,2.0,10.0,50,0.00,,,0.00,WUHU216DAVISVP2,2013-01-20 17:23:00,
2013-01-20 12:28:00,59.2,40.0,30.00,NNW,347,4.0,10.0,49,0.00,,,0.00,WUHU216DAVISVP2,2013-01-20 17:28:00,
2013-01-20 12:33:00,59.2,38.9,29.99,North,0,6.0,10.0,47,0.00,,,0.00,WUHU216DAVISVP2,2013-01-20 17:33:00,
2013-01-20 12:38:00,59.2,38.4,29.99,NW,320,6.0,9.0,46,0.00,,,0.00,WUHU216DAVISVP2,2013-01-20 17:38:00,
2013-01-20 12:43:00,59.2,37.8,29.99,East,90,6.0,10.0,45,0.00,,,0.00,WUHU216DAVISVP2,2013-01-20 17:43:00,
2013-01-20 12:48:00,59.2,38.4,29.98,NNE,27,1.0,13.0,46,0.00,,,0.00,WUHU216DAVISVP2,2013-01-20 17:48:00,
2013-01-20 12:53:00,59.5,38.6,29.98,NW,308,9.0,13.0,46,0.00,,,0.00,WUHU216DAVISVP2,2013-01-20 17:53:00,
2013-01-20 12:58:00,59.6,38.1,29.98,SE,141,0.0,13.0,45,0.00,,,0.00,WUHU216DAVISVP2,2013-01-20 17:58:00,
2013-01-20 13:03:00,59.9,38.4,29.98,North,359,6.0,10.0,45,0.00,,,0.00,WUHU216DAVISVP2,2013-01-20 18:03:00,
2013-01-20 13:08:00,60.1,37.4,29.98,WNW,294,4.0,10.0,43,0.00,,,0.00,WUHU216DAVISVP2,2013-01-20 18:08:00,
2013-01-20 13:13:00,60.1,38.6,29.98,South,178,9.0,16.0,45,0.00,,,0.00,WUHU216DAVISVP2,2013-01-20 18:13:00,
2013-01-20 13:18:00,60.4,38.3,29.97,West,277,6.0,16.0,44,0.00,,,0.00,WUHU216DAVISVP2,2013-01-20 18:18:00,
2013-01-20 13:23:00,60.7,38.6,29.97,NW,312,0.0,8.0,44,0.00,,,0.00,WUHU216DAVISVP2,2013-01-20 18:23:00,
2013-01-20 13:28:00,60.7,38.0,29.97,NNW,346,0.0,9.0,43,0.00,,,0.00,WUHU216DAVISVP2,2013-01-20 18:28:00,
2013-01-20 13:33:00,61.0,38.2,29.96,East,89,0.0,9.0,43,0.00,,,0.00,WUHU216DAVISVP2,2013-01-20 18:33:00,
2013-01-20 13:38:00,61.2,38.4,29.96,NNW,342,6.0,10.0,43,0.00,,,0.00,WUHU216DAVISVP2,2013-01-20 18:38:00,
2013-01-20 13:43:00,61.3,38.5,29.96,North,352,2.0,10.0,43,0.00,,,0.00,WUHU216DAVISVP2,2013-01-20 18:43:00,
2013-01-20 13:48:00,61.3,37.9,29.96,NNE,30,0.0,9.0,42,0.00,,,0.00,WUHU216DAVISVP2,2013-01-20 18:48:00,
2013-01-20 13:53:00,61.6,38.2,29.96,NW,325,2.0,8.0,42,0.00,,,0.00,WUHU216DAVISVP2,2013-01-20 18:53:00,
2013-01-20 13:58:00,62.0,39.1,29.96,West,280,6.0,8.0,43,0.00,,,0.00,WUHU216DAVISVP2,2013-01-20 18:58:00,
2013-01-20 14:03:00,62.0,37.9,29.96,SSW,193,4.0,8.0,41,0.00,,,0.00,WUHU216DAVISVP2,2013-01-20 19:03:00,
2013-01-20 14:08:00,62.0,37.9,29.96,NNW,344,1.0,9.0,41,0.00,,,0.00,WUHU216DAVISVP2,2013-01-20 19:08:00,
2013-01-20 14:13:00,61.8,36.4,29.96,NNE,18,8.0,13.0,39,0.00,,,0.00,WUHU216DAVISVP2,2013-01-20 19:13:00,
2013-01-20 14:18:00,61.5,36.8,29.95,North,359,4.0,13.0,40,0.00,,,0.00,WUHU216DAVISVP2,2013-01-20 19:18:00,
2013-01-20 14:23:00,61.3,36.6,29.95,NE,34,2.0,11.0,40,0.00,,,0.00,WUHU216DAVISVP2,2013-01-20 19:23:00,
2013-01-20 14:28:00,61.3,36.0,29.95,SSE,154,1.0,8.0,39,0.00,,,0.00,WUHU216DAVISVP2,2013-01-20 19:28:00,
2013-01-20 14:33:00,61.5,36.1,29.95,West,265,2.0,8.0,39,0.00,,,0.00,WUHU216DAVISVP2,2013-01-20 19:33:00,
2013-01-20 14:38:00,61.3,36.6,29.95,NW,320,4.0,8.0,40,0.00,,,0.00,WUHU216DAVISVP2,2013-01-20 19:38:00,
2013-01-20 14:43:00,61.3,36.0,29.95,South,175,4.0,8.0,39,0.00,,,0.00,WUHU216DAVISVP2,2013-01-20 19:43:00,
2013-01-20 14:48:00,61.2,35.9,29.95,SW,219,7.0,9.0,39,0.00,,,0.00,WUHU216DAVISVP2,2013-01-20 19:48:00,
2013-01-20 14:53:00,60.9,35.6,29.95,NNW,333,4.0,9.0,39,0.00,,,0.00,WUHU216DAVISVP2,2013-01-20 19:53:00,
2013-01-20 14:58:00,60.7,36.1,29.95,NW,319,1.0,8.0,40,0.00,,,0.00,WUHU216DAVISVP2,2013-01-20 19:58:00,
2013-01-20 15:03:00,60.7,35.4,29.95,NNW,344,4.0,13.0,39,0.00,,,0.00,WUHU216DAVISVP2,2013-01-20 20:03:00,
2013-01-20 15:08:00,60.7,36.7,29.95,NNW,329,2.0,13.0,41,0.00,,,0.00,WUHU216DAVISVP2,2013-01-20 20:08:00,
2013-01-20 15:13:00,60.5,35.2,29.95,West,263,7.0,9.0,39,0.00,,,0.00,WUHU216DAVISVP2,2013-01-20 20:13:00,
2013-01-20 15:18:00,60.5,35.9,29.95,NW,318,1.0,9.0,40,0.00,,,0.00,WUHU216DAVISVP2,2013-01-20 20:18:00,
2013-01-20 15:23:00,60.5,35.9,29.95,NNW,339,1.0,7.0,40,0.00,,,0.00,WUHU216DAVISVP2,2013-01-20 20:23:00,
2013-01-20 15:28:00,60.4,35.8,29.95,NW,316,0.0,8.0,40,0.00,,,0.00,WUHU216DAVISVP2,2013-01-20 20:28:00,
2013-01-20 15:33:00,60.1,34.9,29.95,North,356,6.0,8.0,39,0.00,,,0.00,WUHU216DAVISVP2,2013-01-20 20:33:00,
2013-01-20 15:38:00,59.8,35.3,29.95,West,281,1.0,8.0,40,0.00,,,0.00,WUHU216DAVISVP2,2013-01-20 20:38:00,
2013-01-20 15:43:00,59.5,35.0,29.95,NW,308,2.0,9.0,40,0.00,,,0.00,WUHU216DAVISVP2,2013-01-20 20:43:00,
2013-01-20 15:48:00,59.3,34.8,29.95,North,352,2.0,11.0,40,0.00,,,0.00,WUHU216DAVISVP2,2013-01-20 20:48:00,
2013-01-20 15:53:00,59.2,34.7,29.95,WNW,294,0.0,11.0,40,0.00,,,0.00,WUHU216DAVISVP2,2013-01-20 20:53:00,
2013-01-20 15:58:00,59.0,34.5,29.95,North,3,1.0,8.0,40,0.00,,,0.00,WUHU216DAVISVP2,2013-01-20 20:58:00,
2013-01-20 16:03:00,58.9,34.5,29.95,WNW,295,0.0,7.0,40,0.00,,,0.00,WUHU216DAVISVP2,2013-01-20 21:03:00,
2013-01-20 16:08:00,58.9,34.5,29.95,North,356,4.0,7.0,40,0.00,,,0.00,WUHU216DAVISVP2,2013-01-20 21:08:00,
2013-01-20 16:13:00,58.9,35.1,29.95,NW,304,1.0,8.0,41,0.00,,,0.00,WUHU216DAVISVP2,2013-01-20 21:13:00,
2013-01-20 16:18:00,58.7,34.3,29.96,WNW,301,1.0,8.0,40,0.00,,,0.00,WUHU216DAVISVP2,2013-01-20 21:18:00,
2013-01-20 16:23:00,58.6,34.2,29.96,WNW,289,2.0,8.0,40,0.00,,,0.00,WUHU216DAVISVP2,2013-01-20 21:23:00,
2013-01-20 16:28:00,58.6,34.8,29.96,North,354,2.0,8.0,41,0.00,,,0.00,WUHU216DAVISVP2,2013-01-20 21:28:00,
2013-01-20 16:33:00,58.4,34.6,29.96,NNW,337,0.0,7.0,41,0.00,,,0.00,WUHU216DAVISVP2,2013-01-20 21:33:00,
2013-01-20 16:38:00,58.1,35.0,29.96,North,350,0.0,7.0,42,0.00,,,0.00,WUHU216DAVISVP2,2013-01-20 21:38:00,
2013-01-20 16:43:00,58.0,34.9,29.96,North,359,1.0,4.0,42,0.00,,,0.00,WUHU216DAVISVP2,2013-01-20 21:43:00,
2013-01-20 16:48:00,57.8,34.7,29.97,South,186,0.0,4.0,42,0.00,,,0.00,WUHU216DAVISVP2,2013-01-20 21:48:00,
2013-01-20 16:53:00,57.5,34.4,29.97,NW,315,0.0,6.0,42,0.00,,,0.00,WUHU216DAVISVP2,2013-01-20 21:53:00,
2013-01-20 16:58:00,57.3,34.3,29.97,SW,236,4.0,6.0,42,0.00,,,0.00,WUHU216DAVISVP2,2013-01-20 21:58:00,
2013-01-20 17:03:00,57.2,34.2,29.97,West,281,0.0,4.0,42,0.00,,,0.00,WUHU216DAVISVP2,2013-01-20 22:03:00,
2013-01-20 17:08:00,56.9,34.5,29.97,SW,236,0.0,2.0,43,0.00,,,0.00,WUHU216DAVISVP2,2013-01-20 22:08:00,
2013-01-20 17:13:00,56.3,35.1,29.97,SW,236,0.0,2.0,45,0.00,,,0.00,WUHU216DAVISVP2,2013-01-20 22:13:00,
2013-01-20 17:18:00,55.7,35.2,29.97,SE,140,0.0,0.0,46,0.00,,,0.00,WUHU216DAVISVP2,2013-01-20 22:18:00,
2013-01-20 17:23:00,55.1,35.2,29.97,SE,140,0.0,0.0,47,0.00,,,0.00,WUHU216DAVISVP2,2013-01-20 22:23:00,
2013-01-20 17:28:00,54.4,35.1,29.97,SE,140,0.0,0.0,48,0.00,,,0.00,WUHU216DAVISVP2,2013-01-20 22:28:00,
2013-01-20 17:33:00,53.6,34.9,29.98,SE,140,0.0,0.0,49,0.00,,,0.00,WUHU216DAVISVP2,2013-01-20 22:33:00,
2013-01-20 17:38:00,52.9,34.2,29.98,SE,140,0.0,0.0,49,0.00,,,0.00,WUHU216DAVISVP2,2013-01-20 22:38:00,
2013-01-20 17:43:00,52.2,34.1,29.98,SE,140,0.0,0.0,50,0.00,,,0.00,WUHU216DAVISVP2,2013-01-20 22:43:00,
2013-01-20 17:49:00,51.4,34.4,29.99,SE,140,0.0,0.0,52,0.00,,,0.00,WUHU216DAVISVP2,2013-01-20 22:49:00,
2013-01-20 17:54:00,50.5,34.0,29.99,SE,140,0.0,0.0,53,0.00,,,0.00,WUHU216DAVISVP2,2013-01-20 22:54:00,
2013-01-20 17:59:00,49.8,33.8,29.99,SE,140,0.0,0.0,54,0.00,,,0.00,WUHU216DAVISVP2,2013-01-20 22:59:00,
2013-01-20 18:04:00,49.1,33.7,29.99,SE,140,0.0,0.0,55,0.00,,,0.00,WUHU216DAVISVP2,2013-01-20 23:04:00,
2013-01-20 18:08:00,48.5,33.1,29.99,SE,140,0.0,0.0,55,0.00,,,0.00,WUHU216DAVISVP2,2013-01-20 23:08:00,
2013-01-20 18:13:00,47.7,33.3,29.99,SE,140,0.0,0.0,57,0.00,,,0.00,WUHU216DAVISVP2,2013-01-20 23:13:00,
2013-01-20 18:18:00,47.1,33.1,30.00,SE,140,0.0,0.0,58,0.00,,,0.00,WUHU216DAVISVP2,2013-01-20 23:18:00,
2013-01-20 18:23:00,46.4,32.9,30.00,SE,140,0.0,0.0,59,0.00,,,0.00,WUHU216DAVISVP2,2013-01-20 23:23:00,
2013-01-20 18:28:00,45.8,32.8,30.00,SE,140,0.0,0.0,60,0.00,,,0.00,WUHU216DAVISVP2,2013-01-20 23:28:00,
2013-01-20 18:33:00,45.4,32.8,30.01,SE,140,0.0,0.0,61,0.00,,,0.00,WUHU216DAVISVP2,2013-01-20 23:33:00,
2013-01-20 18:39:00,44.9,32.8,30.01,SE,140,0.0,0.0,62,0.00,,,0.00,WUHU216DAVISVP2,2013-01-20 23:39:00,
2013-01-20 18:44:00,44.6,32.9,30.01,SE,140,0.0,0.0,63,0.00,,,0.00,WUHU216DAVISVP2,2013-01-20 23:44:00,
2013-01-20 18:48:00,44.2,32.5,30.02,SE,140,0.0,0.0,63,0.00,,,0.00,WUHU216DAVISVP2,2013-01-20 23:48:00,
2013-01-20 18:53:00,43.9,32.2,30.02,SE,140,0.0,0.0,63,0.00,,,0.00,WUHU216DAVISVP2,2013-01-20 23:53:00,
2013-01-20 18:58:00,43.8,32.5,30.02,SE,140,0.0,0.0,64,0.00,,,0.00,WUHU216DAVISVP2,2013-01-20 23:58:00,
2013-01-20 19:03:00,43.9,33.0,30.03,SE,136,0.0,1.0,65,0.00,,,0.00,WUHU216DAVISVP2,2013-01-21 00:03:00,
2013-01-20 19:08:00,43.9,32.6,30.03,SE,136,0.0,1.0,64,0.00,,,0.00,WUHU216DAVISVP2,2013-01-21 00:08:00,
2013-01-20 19:14:00,44.3,33.0,30.03,NNE,14,0.0,2.0,64,0.00,,,0.00,WUHU216DAVISVP2,2013-01-21 00:14:00,
2013-01-20 19:19:00,44.5,33.1,30.03,NNE,14,0.0,2.0,64,0.00,,,0.00,WUHU216DAVISVP2,2013-01-21 00:19:00,
2013-01-20 19:24:00,44.6,33.2,30.03,NNE,13,0.0,2.0,64,0.00,,,0.00,WUHU216DAVISVP2,2013-01-21 00:24:00,
2013-01-20 19:29:00,44.8,33.0,30.03,NNE,13,0.0,2.0,63,0.00,,,0.00,WUHU216DAVISVP2,2013-01-21 00:29:00,
2013-01-20 19:34:00,45.1,32.8,30.04,NW,326,1.0,2.0,62,0.00,,,0.00,WUHU216DAVISVP2,2013-01-21 00:34:00,
2013-01-20 19:39:00,45.4,32.8,30.04,NW,325,0.0,2.0,61,0.00,,,0.00,WUHU216DAVISVP2,2013-01-21 00:39:00,
2013-01-20 19:44:00,45.5,32.4,30.04,NW,325,1.0,1.0,60,0.00,,,0.00,WUHU216DAVISVP2,2013-01-21 00:44:00,
2013-01-20 19:49:00,45.8,32.3,30.04,NW,326,0.0,1.0,59,0.00,,,0.00,WUHU216DAVISVP2,2013-01-21 00:49:00,
2013-01-20 19:54:00,45.7,32.7,30.04,NW,326,0.0,1.0,60,0.00,,,0.00,WUHU216DAVISVP2,2013-01-21 00:54:00,
2013-01-20 19:59:00,45.7,31.8,30.04,WNW,282,0.0,6.0,58,0.00,,,0.00,WUHU216DAVISVP2,2013-01-21 00:59:00,
2013-01-20 20:04:00,45.8,31.5,30.04,WNW,282,0.0,6.0,57,0.00,,,0.00,WUHU216DAVISVP2,2013-01-21 01:04:00,
2013-01-20 20:09:00,45.8,31.4,30.04,WNW,282,0.0,2.0,57,0.00,,,0.00,WUHU216DAVISVP2,2013-01-21 01:09:00,
2013-01-20 20:14:00,45.5,31.6,30.04,WNW,282,0.0,0.0,58,0.00,,,0.00,WUHU216DAVISVP2,2013-01-21 01:14:00,
2013-01-20 20:19:00,45.2,31.4,30.03,WNW,282,0.0,0.0,58,0.00,,,0.00,WUHU216DAVISVP2,2013-01-21 01:19:00,
2013-01-20 20:24:00,44.6,31.6,30.03,WNW,282,0.0,0.0,60,0.00,,,0.00,WUHU216DAVISVP2,2013-01-21 01:24:00,
2013-01-20 20:29:00,44.2,31.2,30.03,WNW,282,0.0,0.0,60,0.00,,,0.00,WUHU216DAVISVP2,2013-01-21 01:29:00,
2013-01-20 20:34:00,43.8,30.9,30.04,WNW,282,0.0,0.0,60,0.00,,,0.00,WUHU216DAVISVP2,2013-01-21 01:34:00,
2013-01-20 20:39:00,43.2,30.3,30.04,WNW,282,0.0,0.0,60,0.00,,,0.00,WUHU216DAVISVP2,2013-01-21 01:39:00,
2013-01-20 20:44:00,42.8,30.3,30.04,WNW,282,0.0,0.0,61,0.00,,,0.00,WUHU216DAVISVP2,2013-01-21 01:44:00,
2013-01-20 20:49:00,42.3,30.3,30.05,WNW,282,0.0,0.0,62,0.00,,,0.00,WUHU216DAVISVP2,2013-01-21 01:49:00,
2013-01-20 20:54:00,41.9,29.9,30.05,WNW,282,0.0,0.0,62,0.00,,,0.00,WUHU216DAVISVP2,2013-01-21 01:54:00,
2013-01-20 20:59:00,41.5,29.5,30.05,WNW,282,0.0,0.0,62,0.00,,,0.00,WUHU216DAVISVP2,2013-01-21 01:59:00,
2013-01-20 21:04:00,41.1,28.7,30.05,WNW,282,0.0,0.0,61,0.00,,,0.00,WUHU216DAVISVP2,2013-01-21 02:04:00,
2013-01-20 21:09:00,40.6,28.7,30.05,WNW,282,0.0,0.0,62,0.00,,,0.00,WUHU216DAVISVP2,2013-01-21 02:09:00,
2013-01-20 21:14:00,40.2,28.7,30.05,WNW,282,0.0,0.0,63,0.00,,,0.00,WUHU216DAVISVP2,2013-01-21 02:14:00,
2013-01-20 21:19:00,39.9,29.1,30.05,WNW,282,0.0,0.0,65,0.00,,,0.00,WUHU216DAVISVP2,2013-01-21 02:19:00,
2013-01-20 21:24:00,39.6,28.9,30.05,WNW,282,0.0,0.0,65,0.00,,,0.00,WUHU216DAVISVP2,2013-01-21 02:24:00,
2013-01-20 21:29:00,39.5,28.8,30.05,WNW,282,0.0,0.0,65,0.00,,,0.00,WUHU216DAVISVP2,2013-01-21 02:29:00,
2013-01-20 21:34:00,39.3,28.6,30.06,WNW,282,0.0,0.0,65,0.00,,,0.00,WUHU216DAVISVP2,2013-01-21 02:34:00,
2013-01-20 21:39:00,39.2,28.4,30.06,WNW,282,0.0,0.0,65,0.00,,,0.00,WUHU216DAVISVP2,2013-01-21 02:39:00,
2013-01-20 21:44:00,38.9,28.6,30.06,WNW,282,0.0,0.0,66,0.00,,,0.00,WUHU216DAVISVP2,2013-01-21 02:44:00,
2013-01-20 21:49:00,38.8,28.8,30.06,WNW,282,0.0,0.0,67,0.00,,,0.00,WUHU216DAVISVP2,2013-01-21 02:49:00,
2013-01-20 21:54:00,38.5,28.5,30.06,WNW,282,0.0,0.0,67,0.00,,,0.00,WUHU216DAVISVP2,2013-01-21 02:54:00,
2013-01-20 21:59:00,38.2,28.2,30.06,WNW,282,0.0,0.0,67,0.00,,,0.00,WUHU216DAVISVP2,2013-01-21 02:59:00,
2013-01-20 22:04:00,37.9,28.4,30.06,WNW,282,0.0,0.0,68,0.00,,,0.00,WUHU216DAVISVP2,2013-01-21 03:04:00,
2013-01-20 22:09:00,37.8,28.6,30.06,WNW,282,0.0,0.0,69,0.00,,,0.00,WUHU216DAVISVP2,2013-01-21 03:09:00,
2013-01-20 22:14:00,37.8,28.3,30.06,WNW,282,0.0,0.0,68,0.00,,,0.00,WUHU216DAVISVP2,2013-01-21 03:14:00,
2013-01-20 22:19:00,37.8,28.2,30.06,WNW,282,0.0,0.0,68,0.00,,,0.00,WUHU216DAVISVP2,2013-01-21 03:19:00,
2013-01-20 22:24:00,37.6,28.4,30.06,WNW,282,0.0,0.0,69,0.00,,,0.00,WUHU216DAVISVP2,2013-01-21 03:24:00,
2013-01-20 22:29:00,37.5,28.7,30.06,WNW,282,0.0,0.0,70,0.00,,,0.00,WUHU216DAVISVP2,2013-01-21 03:29:00,
2013-01-20 22:34:00,37.2,28.7,30.07,WNW,282,0.0,0.0,71,0.00,,,0.00,WUHU216DAVISVP2,2013-01-21 03:34:00,
2013-01-20 22:39:00,37.0,28.5,30.07,WNW,282,0.0,0.0,71,0.00,,,0.00,WUHU216DAVISVP2,2013-01-21 03:39:00,
2013-01-20 22:44:00,36.9,28.7,30.07,WNW,282,0.0,0.0,72,0.00,,,0.00,WUHU216DAVISVP2,2013-01-21 03:44:00,
2013-01-20 22:49:00,36.6,28.5,30.06,WNW,282,0.0,0.0,72,0.00,,,0.00,WUHU216DAVISVP2,2013-01-21 03:49:00,
2013-01-20 22:54:00,36.5,28.4,30.06,WNW,282,0.0,0.0,72,0.00,,,0.00,WUHU216DAVISVP2,2013-01-21 03:54:00,
2013-01-20 22:59:00,36.2,28.1,30.06,WNW,282,0.0,0.0,72,0.00,,,0.00,WUHU216DAVISVP2,2013-01-21 03:59:00,
2013-01-20 23:04:00,36.0,27.8,30.07,WNW,282,0.0,0.0,72,0.00,,,0.00,WUHU216DAVISVP2,2013-01-21 04:04:00,
2013-01-20 23:09:00,35.8,28.0,30.07,WNW,282,0.0,0.0,73,0.00,,,0.00,WUHU216DAVISVP2,2013-01-21 04:09:00,
2013-01-20 23:14:00,35.6,27.9,30.07,WNW,282,0.0,0.0,73,0.00,,,0.00,WUHU216DAVISVP2,2013-01-21 04:14:00,
2013-01-20 23:19:00,35.5,27.7,30.06,WNW,282,0.0,0.0,73,0.00,,,0.00,WUHU216DAVISVP2,2013-01-21 04:19:00,
2013-01-20 23:24:00,35.3,27.5,30.06,WNW,282,0.0,0.0,73,0.00,,,0.00,WUHU216DAVISVP2,2013-01-21 04:24:00,
2013-01-20 23:29:00,35.2,27.5,30.06,WNW,282,0.0,0.0,73,0.00,,,0.00,WUHU216DAVISVP2,2013-01-21 04:29:00,
2013-01-20 23:34:00,35.0,27.6,30.06,WNW,282,0.0,0.0,74,0.00,,,0.00,WUHU216DAVISVP2,2013-01-21 04:34:00,
2013-01-20 23:39:00,34.9,27.5,30.06,WNW,282,0.0,0.0,74,0.00,,,0.00,WUHU216DAVISVP2,2013-01-21 04:39:00,
2013-01-20 23:44:00,34.7,27.3,30.06,WNW,282,0.0,0.0,74,0.00,,,0.00,WUHU216DAVISVP2,2013-01-21 04:44:00,
2013-01-20 23:49:00,34.7,27.6,30.06,WNW,282,0.0,0.0,75,0.00,,,0.00,WUHU216DAVISVP2,2013-01-21 04:49:00,
2013-01-20 23:54:00,34.7,27.6,30.06,WNW,282,0.0,0.0,75,0.00,,,0.00,WUHU216DAVISVP2,2013-01-21 04:54:00,
2013-01-20 23:59:00,34.6,27.5,30.06,WNW,282,0.0,0.0,75,0.00,,,0.00,WUHU216DAVISVP2,2013-01-21 04:59:00,